Time;durP1;ratioP1;P1;durP2;ratioP2;P2;SDS_P1;SDS_P2;PMS_P1;PMS_P2;Temp;Humidity;BMP_temperature;BMP_pressure;BME280_temperature;BME280_humidity;BME280_pressure;Samples;Min_cycle;Max_cycle;Signal;HPM_P1;HPM_P2
2023/07/10 00:02:27;;;;;;;5.90;3.70;;;;;;;18.20;55.13;97109.24;108746;1273;23898;-74
2023/07/10 00:04:58;;;;;;;7.10;4.10;;;;;;;18.19;55.12;97111.52;108718;1266;22518;-74
2023/07/10 00:07:29;;;;;;;4.40;3.30;;;;;;;18.19;55.16;97111.48;108696;1266;22528;-74
2023/07/10 00:10:00;;;;;;;5.30;4.10;;;;;;;18.09;55.11;97111.09;108703;1266;22552;-74
2023/07/10 00:12:31;;;;;;;3.50;3.00;;;;;;;17.98;55.25;97111.21;108661;1273;22514;-74
2023/07/10 00:15:10;;;;;;;4.10;2.90;;;;;;;17.90;55.26;97107.14;108678;1273;22536;-74
2023/07/10 00:17:45;;;;;;;4.20;3.00;;;;;;;17.89;55.34;97110.73;108747;1273;25224;-74
2023/07/10 00:20:21;;;;;;;3.90;2.40;;;;;;;17.89;55.33;97108.30;108826;1273;26417;-74
2023/07/10 00:22:53;;;;;;;4.90;2.90;;;;;;;17.90;55.41;97105.42;108828;1273;22515;-74
2023/07/10 00:25:25;;;;;;;4.10;3.00;;;;;;;17.95;55.54;97107.84;108902;1273;22522;-74
2023/07/10 00:27:57;;;;;;;3.70;2.50;;;;;;;17.94;55.43;97109.90;108813;1273;22529;-74
2023/07/10 00:30:31;;;;;;;2.70;2.40;;;;;;;17.92;55.32;97106.96;108832;1266;24188;-74
2023/07/10 00:33:02;;;;;;;3.00;2.60;;;;;;;17.91;55.06;97103.30;108836;1266;26450;-74
2023/07/10 00:35:34;;;;;;;3.10;2.50;;;;;;;17.92;54.92;97102.73;108809;1273;25411;-74
2023/07/10 00:38:17;;;;;;;3.50;2.60;;;;;;;17.96;54.80;97105.13;108796;1267;24188;-74
2023/07/10 00:40:50;;;;;;;5.20;2.80;;;;;;;17.98;54.74;97103.71;108760;1269;22507;-74
2023/07/10 00:43:37;;;;;;;3.70;2.50;;;;;;;17.98;54.68;97100.80;108760;1273;22516;-74
2023/07/10 00:46:17;;;;;;;3.50;2.70;;;;;;;17.93;54.83;97102.11;108811;1266;22592;-74
2023/07/10 00:48:59;;;;;;;3.40;2.70;;;;;;;17.86;54.71;97100.85;108746;1273;23996;-74
2023/07/10 00:51:42;;;;;;;3.60;2.40;;;;;;;17.79;54.79;97100.91;108792;1273;22518;-74
2023/07/10 00:54:33;;;;;;;2.70;2.30;;;;;;;17.74;54.92;97097.50;108765;1273;25533;-74
2023/07/10 00:57:14;;;;;;;4.10;2.60;;;;;;;17.75;55.13;97097.15;108792;1273;22519;-74
2023/07/10 00:59:47;;;;;;;3.20;2.40;;;;;;;17.73;55.17;97098.11;108830;1266;22611;-74
2023/07/10 01:02:25;;;;;;;2.50;2.20;;;;;;;17.72;55.21;97101.73;108789;1273;24221;-74
2023/07/10 01:05:03;;;;;;;4.90;2.60;;;;;;;17.68;55.26;97099.86;108818;1273;22522;-75
2023/07/10 01:07:41;;;;;;;3.80;2.60;;;;;;;17.65;55.20;97093.27;108839;1273;25425;-74
2023/07/10 01:10:13;;;;;;;5.40;2.80;;;;;;;17.68;55.29;97094.77;108760;1273;24236;-75
2023/07/10 01:12:46;;;;;;;3.90;2.70;;;;;;;17.70;55.34;97091.73;108807;1267;22508;-74
2023/07/10 01:15:19;;;;;;;3.80;2.60;;;;;;;17.70;55.31;97091.13;108831;1269;24369;-74
2023/07/10 01:17:50;;;;;;;3.40;2.90;;;;;;;17.73;55.37;97093.38;108840;1273;22521;-74
2023/07/10 01:20:47;;;;;;;3.90;2.80;;;;;;;17.77;55.34;97092.10;108856;1272;24615;-74
2023/07/10 01:23:19;;;;;;;4.10;2.90;;;;;;;17.77;55.35;97087.98;108770;1269;23046;-74
2023/07/10 01:25:55;;;;;;;4.10;3.30;;;;;;;17.75;55.42;97085.42;108909;1272;22512;-74
2023/07/10 01:28:27;;;;;;;4.40;3.10;;;;;;;17.71;55.51;97087.60;108819;1272;25215;-74
2023/07/10 01:30:59;;;;;;;3.90;3.00;;;;;;;17.66;55.63;97087.79;108767;1272;22515;-74
2023/07/10 01:33:34;;;;;;;3.80;3.30;;;;;;;17.62;55.77;97086.14;108795;1272;22566;-74
2023/07/10 01:36:07;;;;;;;4.70;3.00;;;;;;;17.61;55.98;97087.72;108763;1272;22730;-74
2023/07/10 01:38:44;;;;;;;5.40;3.50;;;;;;;17.61;55.89;97082.36;108776;1270;25393;-74
2023/07/10 01:41:30;;;;;;;6.00;4.30;;;;;;;17.63;56.02;97079.45;108764;1269;22507;-74
2023/07/10 01:44:02;;;;;;;4.30;3.80;;;;;;;17.65;56.13;97076.55;108720;1272;22512;-74
2023/07/10 01:46:33;;;;;;;3.80;3.40;;;;;;;17.64;56.13;97076.46;108771;1272;25332;-74
2023/07/10 01:49:04;;;;;;;5.20;3.10;;;;;;;17.64;56.19;97072.52;108772;1272;22538;-74
2023/07/10 01:51:36;;;;;;;5.10;3.70;;;;;;;17.63;56.26;97070.21;108776;1266;22521;-74
2023/07/10 01:54:11;;;;;;;5.40;3.80;;;;;;;17.62;56.21;97068.48;108728;1270;25316;-74
2023/07/10 01:56:43;;;;;;;4.50;3.40;;;;;;;17.58;56.13;97068.80;108797;1272;24376;-74
2023/07/10 01:59:14;;;;;;;4.20;3.20;;;;;;;17.54;56.17;97072.89;108778;1267;22567;-74
2023/07/10 02:01:45;;;;;;;4.70;3.40;;;;;;;17.50;56.21;97073.33;108790;1272;25376;-74
2023/07/10 02:04:17;;;;;;;5.20;3.20;;;;;;;17.46;56.30;97072.77;108747;1272;22515;-74
2023/07/10 02:06:48;;;;;;;5.30;3.50;;;;;;;17.46;56.31;97072.60;108780;1272;22517;-74
2023/07/10 02:09:19;;;;;;;6.20;3.80;;;;;;;17.43;56.19;97067.98;108771;1269;22530;-74
2023/07/10 02:11:50;;;;;;;4.50;3.40;;;;;;;17.42;56.26;97073.39;108755;1270;22511;-74
2023/07/10 02:14:22;;;;;;;5.00;3.60;;;;;;;17.45;56.19;97071.16;108756;1272;22518;-74
2023/07/10 02:16:54;;;;;;;5.80;3.50;;;;;;;17.47;56.21;97068.47;108795;1272;22589;-74
2023/07/10 02:19:25;;;;;;;6.70;4.00;;;;;;;17.50;56.25;97070.93;108723;1266;22514;-74
2023/07/10 02:21:56;;;;;;;6.40;4.10;;;;;;;17.50;56.22;97066.36;108763;1272;22534;-75
2023/07/10 02:24:27;;;;;;;5.40;4.20;;;;;;;17.51;56.53;97066.02;108725;1266;22527;-74
2023/07/10 02:26:58;;;;;;;5.30;4.40;;;;;;;17.54;56.55;97059.93;108808;1272;22533;-75
2023/07/10 02:29:29;;;;;;;5.10;3.80;;;;;;;17.54;56.62;97059.27;108757;1272;22623;-74
2023/07/10 02:32:02;;;;;;;5.00;3.30;;;;;;;17.56;56.67;97055.23;108753;1267;26576;-75
2023/07/10 02:34:33;;;;;;;4.20;3.50;;;;;;;17.55;56.57;97055.23;108699;1264;22511;-75
2023/07/10 02:37:05;;;;;;;6.00;4.20;;;;;;;17.54;56.53;97057.95;108720;1272;22559;-74
2023/07/10 02:39:36;;;;;;;4.50;3.80;;;;;;;17.52;56.59;97058.70;108777;1272;22531;-74
2023/07/10 02:42:08;;;;;;;4.90;4.10;;;;;;;17.51;56.66;97055.08;108707;1269;22518;-75
2023/07/10 02:44:39;;;;;;;4.50;4.00;;;;;;;17.54;56.88;97058.38;108803;1269;22525;-74
2023/07/10 02:47:10;;;;;;;4.60;4.10;;;;;;;17.54;56.75;97059.27;108753;1269;22537;-74
2023/07/10 02:49:41;;;;;;;6.30;4.20;;;;;;;17.52;56.73;97055.20;108776;1266;22527;-74
2023/07/10 02:52:12;;;;;;;5.40;4.50;;;;;;;17.51;56.78;97055.45;108733;1272;22588;-74
2023/07/10 02:54:43;;;;;;;5.60;4.00;;;;;;;17.51;56.88;97054.45;108701;1272;22522;-74
2023/07/10 02:57:14;;;;;;;6.00;3.90;;;;;;;17.53;56.94;97059.84;108730;1272;22830;-74
2023/07/10 02:59:45;;;;;;;5.80;4.30;;;;;;;17.54;56.93;97062.08;108726;1266;22527;-74
2023/07/10 03:02:16;;;;;;;5.60;4.40;;;;;;;17.54;56.94;97058.89;108724;1272;22519;-74
2023/07/10 03:04:47;;;;;;;6.50;4.90;;;;;;;17.56;56.95;97051.28;108740;1272;24217;-74
2023/07/10 03:07:19;;;;;;;7.10;5.10;;;;;;;17.55;57.13;97048.73;108723;1269;22523;-74
2023/07/10 03:09:50;;;;;;;6.30;4.90;;;;;;;17.54;57.25;97050.00;108722;1272;22667;-74
2023/07/10 03:12:22;;;;;;;6.50;4.60;;;;;;;17.55;57.37;97052.02;108752;1272;22518;-74
2023/07/10 03:14:53;;;;;;;6.80;5.00;;;;;;;17.57;57.50;97053.34;108782;1269;22530;-74
2023/07/10 03:17:24;;;;;;;6.90;4.90;;;;;;;17.61;57.50;97051.85;108758;1262;23766;-74
2023/07/10 03:19:55;;;;;;;5.60;4.10;;;;;;;17.65;57.46;97051.20;108698;1272;26512;-74
2023/07/10 03:22:27;;;;;;;6.00;4.80;;;;;;;17.69;57.55;97050.33;108733;1272;25183;-74
2023/07/10 03:24:58;;;;;;;5.70;4.70;;;;;;;17.72;57.45;97054.85;108754;1272;25929;-74
2023/07/10 03:27:30;;;;;;;6.80;4.70;;;;;;;17.71;57.51;97054.19;108745;1269;22568;-74
2023/07/10 03:30:01;;;;;;;7.20;5.60;;;;;;;17.69;57.63;97051.89;108792;1272;22515;-75
2023/07/10 03:32:32;;;;;;;7.00;5.20;;;;;;;17.67;57.78;97047.47;108748;1266;24238;-74
2023/07/10 03:35:07;;;;;;;6.30;5.40;;;;;;;17.68;57.97;97047.73;108770;1272;24265;-74
2023/07/10 03:37:38;;;;;;;9.20;5.40;;;;;;;17.68;58.01;97041.94;108728;1266;24890;-74
2023/07/10 03:40:11;;;;;;;8.00;5.30;;;;;;;17.67;58.02;97041.74;108806;1272;22581;-74
2023/07/10 03:42:42;;;;;;;8.30;5.40;;;;;;;17.64;58.22;97038.83;108792;1272;22514;-74
2023/07/10 03:45:13;;;;;;;7.50;5.10;;;;;;;17.66;58.30;97043.52;108728;1272;22547;-73
2023/07/10 03:47:44;;;;;;;6.90;5.20;;;;;;;17.71;58.36;97045.45;108729;1272;25237;-74
2023/07/10 03:50:15;;;;;;;6.30;5.60;;;;;;;17.71;58.44;97050.34;108740;1272;25233;-75
2023/07/10 03:52:46;;;;;;;7.20;5.00;;;;;;;17.71;58.51;97051.06;108727;1272;22534;-74
2023/07/10 03:55:18;;;;;;;5.90;4.70;;;;;;;17.77;58.31;97055.23;108741;1272;22630;-74
2023/07/10 03:57:49;;;;;;;5.30;4.40;;;;;;;17.84;58.34;97054.75;108714;1265;22528;-74
2023/07/10 04:00:20;;;;;;;6.70;5.00;;;;;;;17.87;58.27;97051.25;108728;1272;22540;-74
2023/07/10 04:02:51;;;;;;;6.00;4.70;;;;;;;17.95;58.27;97055.80;108713;1270;22599;-74
2023/07/10 04:05:23;;;;;;;8.50;6.40;;;;;;;18.03;58.33;97053.83;108715;1272;25473;-76
2023/07/10 04:07:55;;;;;;;7.60;6.00;;;;;;;18.12;58.39;97060.02;108768;1269;24243;-76
2023/07/10 04:10:27;;;;;;;6.70;5.50;;;;;;;18.17;58.70;97057.74;108885;1265;22916;-76
2023/07/10 04:12:58;;;;;;;4.80;4.30;;;;;;;18.22;58.86;97059.09;108837;1265;25389;-76
2023/07/10 04:15:29;;;;;;;5.40;4.20;;;;;;;18.27;59.06;97056.56;108854;1272;22534;-76
2023/07/10 04:18:00;;;;;;;5.00;4.40;;;;;;;18.33;59.15;97056.36;108875;1266;22525;-76
2023/07/10 04:20:31;;;;;;;5.90;4.40;;;;;;;18.39;59.09;97055.98;108832;1266;22532;-76
2023/07/10 04:23:02;;;;;;;5.30;4.70;;;;;;;18.48;58.52;97056.55;108803;1265;25371;-76
2023/07/10 04:25:33;;;;;;;5.80;4.60;;;;;;;18.57;58.53;97057.45;108868;1272;22531;-78
2023/07/10 04:28:04;;;;;;;7.60;5.10;;;;;;;18.62;58.04;97053.31;108870;1272;23421;-77
2023/07/10 04:30:36;;;;;;;6.80;5.30;;;;;;;18.68;57.86;97051.59;108851;1272;22627;-77
2023/07/10 04:33:09;;;;;;;5.80;5.20;;;;;;;18.75;57.74;97049.67;108776;1269;22984;-77
2023/07/10 04:35:40;;;;;;;5.80;5.20;;;;;;;18.81;57.66;97040.88;108757;1272;24784;-77
2023/07/10 04:38:12;;;;;;;8.60;5.10;;;;;;;18.84;57.40;97041.81;108720;1269;25555;-77
2023/07/10 04:40:53;;;;;;;6.50;4.80;;;;;;;18.84;57.31;97052.05;108785;1270;22514;-77
2023/07/10 04:43:26;;;;;;;6.20;5.30;;;;;;;18.89;57.20;97052.23;108794;1256;24282;-77
2023/07/10 04:45:59;;;;;;;6.20;5.50;;;;;;;18.92;57.04;97057.29;108741;1272;22511;-77
2023/07/10 04:48:30;;;;;;;6.60;5.70;;;;;;;18.93;56.92;97061.55;108843;1272;22522;-77
2023/07/10 04:51:04;;;;;;;5.50;4.90;;;;;;;18.94;56.93;97058.77;108823;1272;26272;-77
2023/07/10 04:53:36;;;;;;;7.20;5.20;;;;;;;18.98;57.00;97059.81;108759;1272;22642;-77
2023/07/10 04:56:10;;;;;;;7.30;5.30;;;;;;;19.04;56.97;97056.23;108721;1271;22563;-77
2023/07/10 04:58:53;;;;;;;6.20;5.40;;;;;;;19.08;56.83;97056.41;108727;1272;22583;-77
2023/07/10 05:01:26;;;;;;;7.10;5.40;;;;;;;19.16;56.86;97053.57;108815;1269;22515;-77
2023/07/10 05:04:00;;;;;;;6.40;5.20;;;;;;;19.25;56.81;97055.39;108746;1272;22515;-77
2023/07/10 05:06:31;;;;;;;7.20;5.20;;;;;;;19.34;56.72;97052.86;108829;1272;22526;-77
2023/07/10 05:09:03;;;;;;;6.60;5.80;;;;;;;19.47;56.77;97054.97;108894;1266;22621;-77
2023/07/10 05:11:35;;;;;;;7.40;5.50;;;;;;;19.58;56.58;97053.05;108853;1272;22528;-77
2023/07/10 05:14:06;;;;;;;6.90;5.60;;;;;;;19.67;56.30;97050.77;108814;1272;26533;-77
2023/07/10 05:16:37;;;;;;;6.50;5.20;;;;;;;19.86;56.49;97049.89;108865;1272;22526;-77
2023/07/10 05:19:08;;;;;;;7.90;5.30;;;;;;;20.13;56.34;97043.05;108834;1272;22670;-77
2023/07/10 05:21:39;;;;;;;8.50;5.30;;;;;;;20.71;56.80;97046.38;108825;1272;22522;-77
2023/07/10 05:24:10;;;;;;;6.90;5.60;;;;;;;21.60;56.23;97047.12;108729;1272;26548;-77
2023/07/10 05:26:41;;;;;;;6.70;5.10;;;;;;;22.36;55.01;97049.45;108752;1269;22540;-77
2023/07/10 05:29:12;;;;;;;7.10;5.30;;;;;;;23.22;54.38;97053.44;108727;1272;26510;-77
2023/07/10 05:31:43;;;;;;;9.00;5.70;;;;;;;24.12;53.02;97050.41;108728;1272;22652;-77
2023/07/10 05:34:15;;;;;;;5.60;5.00;;;;;;;24.82;52.07;97047.85;108747;1266;25233;-77
2023/07/10 05:36:46;;;;;;;6.20;5.30;;;;;;;25.80;51.24;97049.39;108742;1272;22659;-78
2023/07/10 05:39:17;;;;;;;6.10;4.90;;;;;;;26.74;49.90;97048.03;108723;1272;22521;-78
2023/07/10 05:41:48;;;;;;;4.90;4.40;;;;;;;27.36;48.33;97051.13;108743;1272;22532;-77
2023/07/10 05:44:19;;;;;;;7.10;4.50;;;;;;;27.75;47.33;97051.66;108750;1272;22522;-77
2023/07/10 05:46:51;;;;;;;5.70;4.90;;;;;;;27.99;46.24;97047.70;108766;1269;25340;-78
2023/07/10 05:49:23;;;;;;;5.50;4.80;;;;;;;28.12;45.19;97047.44;108761;1272;22525;-78
2023/07/10 05:51:55;;;;;;;6.80;4.80;;;;;;;27.99;43.96;97048.39;108763;1272;22520;-77
2023/07/10 05:54:26;;;;;;;5.40;4.90;;;;;;;27.38;43.72;97045.47;108663;1272;25271;-78
2023/07/10 05:56:59;;;;;;;6.00;4.60;;;;;;;27.42;43.72;97048.06;108765;1272;22538;-78
2023/07/10 05:59:30;;;;;;;7.70;4.80;;;;;;;27.32;43.01;97052.72;108793;1267;25337;-78
2023/07/10 06:02:02;;;;;;;8.80;5.00;;;;;;;27.24;42.79;97047.77;108744;1269;22644;-79
2023/07/10 06:04:33;;;;;;;7.10;4.90;;;;;;;27.29;42.63;97053.00;108845;1266;31846;-79
2023/07/10 06:07:06;;;;;;;5.20;4.60;;;;;;;27.36;42.42;97050.82;108914;1248;22548;-78
2023/07/10 06:09:38;;;;;;;6.00;4.90;;;;;;;27.46;42.33;97055.25;108821;1272;22538;-77
2023/07/10 06:12:11;;;;;;;7.00;4.50;;;;;;;27.26;41.84;97055.55;108751;1272;22525;-78
2023/07/10 06:14:42;;;;;;;5.10;4.60;;;;;;;27.13;42.15;97055.29;108730;1266;25401;-78
2023/07/10 06:17:14;;;;;;;5.20;4.70;;;;;;;27.29;42.05;97052.16;108778;1272;26468;-77
2023/07/10 06:19:45;;;;;;;7.30;4.90;;;;;;;27.53;41.94;97056.01;108734;1267;25316;-78
2023/07/10 06:22:16;;;;;;;8.20;4.70;;;;;;;27.91;42.10;97053.02;108737;1271;22512;-77
2023/07/10 06:24:48;;;;;;;5.00;4.50;;;;;;;28.25;41.44;97050.39;108702;1266;25334;-77
2023/07/10 06:27:19;;;;;;;5.30;4.40;;;;;;;28.49;41.26;97047.38;108670;1272;24254;-78
2023/07/10 06:29:51;;;;;;;7.00;4.90;;;;;;;28.66;40.92;97049.23;108740;1272;22519;-78
2023/07/10 06:32:23;;;;;;;7.60;4.90;;;;;;;28.86;40.58;97046.72;108766;1264;25411;-77
2023/07/10 06:34:54;;;;;;;5.00;4.50;;;;;;;29.00;40.58;97043.33;108865;1264;22521;-78
2023/07/10 06:37:25;;;;;;;6.30;4.30;;;;;;;29.09;40.19;97043.57;108684;1266;23306;-78
2023/07/10 06:40:12;;;;;;;5.50;4.50;;;;;;;29.03;40.09;97039.35;108696;1272;24269;-78
2023/07/10 06:42:44;;;;;;;7.00;4.50;;;;;;;29.05;40.24;97040.29;108576;1272;22633;-78
2023/07/10 06:45:16;;;;;;;6.00;4.50;;;;;;;29.22;40.09;97040.46;108669;1272;22589;-78
2023/07/10 06:47:48;;;;;;;5.80;4.70;;;;;;;29.38;40.08;97040.30;108828;1266;22546;-77
2023/07/10 06:50:19;;;;;;;6.30;4.50;;;;;;;29.55;40.06;97042.50;108709;1272;22640;-77
2023/07/10 06:52:50;;;;;;;5.10;4.60;;;;;;;29.90;40.00;97043.15;108609;1269;22521;-77
2023/07/10 06:55:22;;;;;;;6.30;4.30;;;;;;;30.15;39.48;97040.54;108692;1262;24370;-77
2023/07/10 06:57:53;;;;;;;5.70;4.70;;;;;;;30.00;39.15;97040.09;108689;1272;22531;-77
2023/07/10 07:00:25;;;;;;;7.60;4.80;;;;;;;29.73;39.36;97037.64;108711;1266;22527;-77
2023/07/10 07:02:57;;;;;;;6.80;4.60;;;;;;;29.48;39.38;97037.04;108657;1264;22540;-77
2023/07/10 07:05:29;;;;;;;5.40;4.30;;;;;;;29.29;39.83;97040.77;108739;1272;22494;-77
2023/07/10 07:08:02;;;;;;;5.80;4.60;;;;;;;29.49;39.93;97038.91;108754;1267;22519;-77
2023/07/10 07:10:34;;;;;;;5.40;4.20;;;;;;;29.77;39.58;97039.27;108772;1272;22526;-77
2023/07/10 07:13:05;;;;;;;5.30;4.50;;;;;;;29.88;39.30;97034.81;108773;1266;22530;-77
2023/07/10 07:15:37;;;;;;;6.50;4.20;;;;;;;29.85;39.10;97032.70;108796;1270;25281;-77
2023/07/10 07:18:09;;;;;;;11.80;4.90;;;;;;;29.85;38.87;97033.71;108715;1266;22532;-76
2023/07/10 07:20:40;;;;;;;6.80;4.10;;;;;;;29.58;38.05;97029.45;108787;1267;24126;-75
2023/07/10 07:23:12;;;;;;;4.50;3.70;;;;;;;29.22;38.19;97023.61;108782;1272;23298;-75
2023/07/10 07:25:44;;;;;;;5.30;4.30;;;;;;;29.22;38.39;97026.73;108811;1272;22538;-75
2023/07/10 07:28:15;;;;;;;6.90;4.10;;;;;;;29.33;38.30;97026.11;108782;1259;25539;-74
2023/07/10 07:30:48;;;;;;;8.30;4.00;;;;;;;29.35;38.15;97030.08;108826;1271;25495;-75
2023/07/10 07:33:21;;;;;;;8.10;4.30;;;;;;;29.41;37.82;97037.17;108797;1269;22542;-75
2023/07/10 07:35:52;;;;;;;4.90;4.00;;;;;;;29.40;37.67;97037.80;108496;1269;244366;-75
2023/07/10 07:38:24;;;;;;;7.20;4.30;;;;;;;29.50;37.82;97033.22;108732;1272;22571;-75
2023/07/10 07:40:56;;;;;;;5.10;4.10;;;;;;;29.48;37.78;97026.58;108550;1267;24405;-76
2023/07/10 07:43:29;;;;;;;5.80;4.40;;;;;;;29.52;38.47;97026.27;108730;1272;22515;-75
2023/07/10 07:46:00;;;;;;;5.40;4.20;;;;;;;29.85;38.60;97024.58;108744;1269;22515;-75
2023/07/10 07:48:31;;;;;;;8.30;5.20;;;;;;;29.84;37.65;97021.92;108657;1269;23162;-75
2023/07/10 07:51:04;;;;;;;7.20;4.30;;;;;;;29.59;37.44;97021.35;108722;1272;22567;-75
2023/07/10 07:53:40;;;;;;;4.40;4.00;;;;;;;29.61;37.79;97015.50;108709;1272;22650;-75
2023/07/10 07:56:11;;;;;;;8.80;4.00;;;;;;;29.94;38.26;97013.30;108778;1272;22535;-75
2023/07/10 07:58:42;;;;;;;8.10;4.20;;;;;;;30.19;37.73;97012.15;108735;1270;22512;-75
2023/07/10 08:01:17;;;;;;;4.70;4.20;;;;;;;30.10;37.68;97008.74;108819;1267;23509;-75
2023/07/10 08:03:48;;;;;;;4.70;4.00;;;;;;;29.98;37.38;97011.48;108807;1272;22637;-75
2023/07/10 08:06:20;;;;;;;4.70;4.00;;;;;;;30.03;38.20;97014.61;108788;1269;22515;-75
2023/07/10 08:08:51;;;;;;;4.80;3.90;;;;;;;30.27;38.32;97013.38;108788;1272;24017;-75
2023/07/10 08:11:23;;;;;;;6.80;3.80;;;;;;;30.41;38.27;97013.15;108863;1272;22518;-75
2023/07/10 08:13:54;;;;;;;5.10;3.80;;;;;;;30.64;38.37;97018.13;108811;1272;25386;-75
2023/07/10 08:16:26;;;;;;;4.40;4.00;;;;;;;30.82;37.98;97012.16;108845;1272;22562;-76
2023/07/10 08:18:58;;;;;;;4.40;4.00;;;;;;;30.87;37.58;97015.96;108833;1270;25251;-74
2023/07/10 08:21:29;;;;;;;4.30;3.80;;;;;;;30.47;36.85;97017.04;108687;1265;22522;-75
2023/07/10 08:24:01;;;;;;;5.50;3.80;;;;;;;30.28;37.30;97017.52;108637;1269;22522;-75
2023/07/10 08:26:32;;;;;;;7.40;3.80;;;;;;;30.30;37.29;97012.66;108604;1272;25340;-75
2023/07/10 08:29:24;;;;;;;4.20;3.50;;;;;;;30.51;38.03;97014.81;108627;1272;22525;-75
2023/07/10 08:31:57;;;;;;;5.20;3.80;;;;;;;30.86;37.46;97016.20;108659;1272;22551;-75
2023/07/10 08:34:32;;;;;;;4.80;3.50;;;;;;;30.95;36.93;97013.63;108973;1270;22509;-75
2023/07/10 08:37:03;;;;;;;4.40;3.90;;;;;;;31.13;37.17;97008.73;108716;1270;22519;-75
2023/07/10 08:39:35;;;;;;;5.10;3.60;;;;;;;31.37;37.12;97013.09;108585;1272;24231;-74
2023/07/10 08:42:17;;;;;;;4.10;3.60;;;;;;;31.44;36.41;97012.48;108680;1272;22598;-76
2023/07/10 08:44:53;;;;;;;4.10;3.60;;;;;;;31.27;36.50;97012.10;108701;1270;22519;-76
2023/07/10 08:47:28;;;;;;;3.90;3.40;;;;;;;31.26;36.25;97010.85;108625;1272;24253;-76
2023/07/10 08:50:04;;;;;;;4.30;3.90;;;;;;;31.04;36.24;97014.43;108639;1272;22516;-76
2023/07/10 08:52:42;;;;;;;4.20;3.60;;;;;;;30.97;36.34;97011.83;108760;1270;22527;-76
2023/07/10 08:55:18;;;;;;;4.60;3.80;;;;;;;30.96;36.71;97005.09;108769;1272;26265;-77
2023/07/10 08:57:55;;;;;;;5.10;3.90;;;;;;;30.96;36.32;97003.70;108731;1272;22518;-76
2023/07/10 09:00:29;;;;;;;4.50;3.60;;;;;;;30.65;36.51;97004.13;108697;1272;22512;-76
2023/07/10 09:03:08;;;;;;;5.00;4.10;;;;;;;30.41;36.07;97011.04;108734;1250;22515;-76
2023/07/10 09:05:41;;;;;;;6.40;4.20;;;;;;;30.02;36.04;97007.43;108743;1272;25405;-76
2023/07/10 09:08:16;;;;;;;5.20;3.70;;;;;;;29.54;36.02;97001.73;108830;1272;22769;-77
2023/07/10 09:10:51;;;;;;;4.60;3.90;;;;;;;29.05;36.03;97004.02;108720;1272;23032;-77
2023/07/10 09:13:32;;;;;;;4.40;3.70;;;;;;;28.88;36.86;97003.94;108684;1272;26038;-77
2023/07/10 09:16:10;;;;;;;4.50;3.50;;;;;;;28.83;37.10;97002.55;108732;1270;25198;-76
2023/07/10 09:18:49;;;;;;;6.80;4.10;;;;;;;28.64;36.67;97001.91;108720;1272;26213;-76
2023/07/10 09:21:24;;;;;;;4.60;3.60;;;;;;;28.39;36.76;97000.98;108743;1266;22518;-76
2023/07/10 09:23:57;;;;;;;6.50;3.50;;;;;;;28.17;37.29;96994.02;108728;1272;22538;-76
2023/07/10 09:26:32;;;;;;;3.70;3.00;;;;;;;28.06;37.13;96993.05;108368;1267;22573;-77
2023/07/10 09:29:26;;;;;;;6.20;3.80;;;;;;;27.74;37.05;96988.38;108658;1266;22527;-77
2023/07/10 09:32:04;;;;;;;5.70;3.60;;;;;;;27.60;37.76;96989.52;108620;1272;22532;-77
2023/07/10 09:34:36;;;;;;;;;;;;;;;27.58;37.83;96992.06;108939;1266;22523;-77
2023/07/10 09:37:13;;;;;;;7.50;3.70;;;;;;;27.57;37.51;96995.48;109434;1270;22538;-77
2023/07/10 09:39:47;;;;;;;6.20;3.20;;;;;;;27.57;38.24;96996.04;108579;1263;25406;-77
2023/07/10 09:42:20;;;;;;;6.60;2.80;;;;;;;27.67;38.09;96999.86;108775;1261;22519;-76
2023/07/10 09:44:56;;;;;;;4.10;3.20;;;;;;;27.60;37.48;97004.55;108565;1270;22544;-77
2023/07/10 09:47:41;;;;;;;4.80;2.80;;;;;;;27.46;37.35;97011.37;108551;1273;24321;-77
2023/07/10 09:50:18;;;;;;;4.60;3.10;;;;;;;27.34;37.53;97011.21;108666;1267;22512;-77
2023/07/10 09:52:56;;;;;;;5.60;3.30;;;;;;;27.40;38.46;97008.84;108736;1267;25393;-76
2023/07/10 09:55:27;;;;;;;5.20;3.40;;;;;;;27.64;38.78;97006.28;108812;1272;22518;-77
2023/07/10 09:58:03;;;;;;;4.20;2.90;;;;;;;27.81;38.28;96996.89;108837;1267;22546;-78
2023/07/10 10:00:34;;;;;;;4.80;3.00;;;;;;;27.96;38.53;96998.14;108861;1272;22526;-77
2023/07/10 10:03:15;;;;;;;3.40;2.80;;;;;;;28.19;39.20;96989.83;108823;1272;22516;-78
2023/07/10 10:05:53;;;;;;;5.90;3.10;;;;;;;28.42;38.90;96995.08;108918;1272;22542;-77
2023/07/10 10:08:28;;;;;;;3.70;2.80;;;;;;;28.60;38.71;96988.41;108829;1266;22532;-77
2023/07/10 10:11:08;;;;;;;3.30;2.90;;;;;;;28.57;37.53;96985.69;108792;1272;24136;-77
2023/07/10 10:13:45;;;;;;;3.60;2.90;;;;;;;28.45;37.77;96983.02;108733;1270;22522;-78
2023/07/10 10:16:25;;;;;;;4.70;3.30;;;;;;;28.49;37.89;96984.27;108707;1266;23266;-78
2023/07/10 10:19:02;;;;;;;4.70;3.20;;;;;;;28.66;38.62;96979.08;108742;1272;24666;-77
2023/07/10 10:21:37;;;;;;;3.90;3.20;;;;;;;28.77;37.99;96976.13;108711;1272;23051;-75
2023/07/10 10:24:13;;;;;;;5.70;3.50;;;;;;;28.68;37.22;96977.75;108728;1270;25366;-77
2023/07/10 10:27:11;;;;;;;4.00;3.20;;;;;;;28.68;37.22;96973.54;108726;1270;22519;-77
2023/07/10 10:30:21;;;;;;;5.70;3.20;;;;;;;28.71;36.88;96970.75;108762;1272;25389;-76
2023/07/10 10:33:01;;;;;;;4.10;2.90;;;;;;;28.68;36.99;96968.39;108604;1264;22527;-77
2023/07/10 10:35:49;;;;;;;3.90;3.10;;;;;;;28.82;37.15;96960.63;108693;1269;24187;-77
2023/07/10 10:38:35;;;;;;;5.00;3.50;;;;;;;28.92;36.16;96960.65;108615;1264;22537;-77
2023/07/10 10:41:20;;;;;;;3.50;3.10;;;;;;;28.81;35.13;96964.35;108523;1264;23353;-77
2023/07/10 10:44:01;;;;;;;6.20;3.30;;;;;;;28.76;34.88;96969.52;108511;1272;24928;-77
2023/07/10 10:46:55;;;;;;;4.10;3.00;;;;;;;28.78;34.88;96966.92;108694;1272;22551;-77
2023/07/10 10:49:56;;;;;;;5.70;3.30;;;;;;;28.81;33.98;96959.44;108705;1267;22560;-78
2023/07/10 10:52:38;;;;;;;4.20;3.50;;;;;;;28.91;34.97;96962.90;108634;1272;22556;-77
2023/07/10 10:55:38;;;;;;;4.60;3.60;;;;;;;29.04;34.20;96958.40;108746;1272;22521;-78
2023/07/10 10:58:28;;;;;;;7.00;3.80;;;;;;;28.90;34.08;96961.66;108596;1272;22521;-78
2023/07/10 11:01:15;;;;;;;5.20;3.50;;;;;;;28.74;33.29;96959.44;108740;1267;22555;-79
2023/07/10 11:03:54;;;;;;;4.00;3.40;;;;;;;28.62;33.41;96950.55;108751;1272;22522;-79
2023/07/10 11:06:49;;;;;;;5.20;3.40;;;;;;;28.69;33.58;96948.38;108802;1269;22596;-78
2023/07/10 11:09:27;;;;;;;4.90;3.50;;;;;;;28.80;34.48;96951.27;108787;1272;22538;-78
2023/07/10 11:12:01;;;;;;;5.10;3.60;;;;;;;28.95;34.59;96951.98;108748;1272;22555;-78
2023/07/10 11:14:32;;;;;;;4.00;3.40;;;;;;;28.93;33.79;96949.27;108795;1267;23342;-77
2023/07/10 11:17:04;;;;;;;5.00;3.70;;;;;;;28.82;33.81;96946.96;108766;1266;22526;-77
2023/07/10 11:19:35;;;;;;;6.90;3.70;;;;;;;28.82;34.00;96951.73;108807;1272;24257;-77
2023/07/10 11:22:26;;;;;;;6.00;3.60;;;;;;;28.70;33.63;96947.98;108709;1272;24489;-77
2023/07/10 11:25:01;;;;;;;4.20;3.50;;;;;;;28.70;34.54;96948.59;108670;1267;22527;-78
2023/07/10 11:27:37;;;;;;;6.10;3.60;;;;;;;28.82;34.57;96945.80;108707;1273;24270;-78
2023/07/10 11:30:17;;;;;;;5.90;3.40;;;;;;;28.76;33.99;96942.67;108729;1270;22558;-77
2023/07/10 11:33:03;;;;;;;6.70;3.60;;;;;;;28.61;33.65;96939.02;108705;1272;24241;-76
2023/07/10 11:35:34;;;;;;;5.30;3.40;;;;;;;28.57;34.02;96926.52;108780;1267;22566;-77
2023/07/10 11:38:22;;;;;;;4.20;3.50;;;;;;;28.39;33.74;96925.33;108763;1272;22538;-77
2023/07/10 11:41:24;;;;;;;5.00;4.20;;;;;;;28.30;34.18;96922.91;108802;1272;24259;-77
2023/07/10 11:44:12;;;;;;;5.70;4.20;;;;;;;28.28;34.05;96925.23;108731;1270;22576;-77
2023/07/10 11:47:00;;;;;;;4.30;3.70;;;;;;;28.36;34.12;96924.70;108770;1270;22515;-77
2023/07/10 11:50:05;;;;;;;4.60;3.60;;;;;;;28.54;34.35;96919.98;108788;1270;22521;-77
2023/07/10 11:52:40;;;;;;;6.00;4.10;;;;;;;28.67;34.12;96918.58;108781;1272;31619;-76
2023/07/10 11:55:25;;;;;;;5.40;3.50;;;;;;;28.60;34.63;96919.76;108777;1272;22519;-77
2023/07/10 11:58:24;;;;;;;6.00;3.30;;;;;;;28.61;34.28;96927.23;108718;1271;22567;-78
2023/07/10 12:01:16;;;;;;;4.20;3.40;;;;;;;28.41;33.71;96925.27;108739;1272;25258;-77